Time;durP1;ratioP1;P1;durP2;ratioP2;P2;SDS_P1;SDS_P2;PMS_P1;PMS_P2;Temp;Humidity;BMP_temperature;BMP_pressure;BME280_temperature;BME280_humidity;BME280_pressure;Samples;Min_cycle;Max_cycle;Signal;HPM_P1;HPM_P2
2023/06/05 00:02:24;;;;;;;5.37;2.93;;;;;;;;;;5060112;28;20074;-73
2023/06/05 00:04:50;;;;;;;9.10;3.30;;;;;;;;;;5044570;28;20291;-73
2023/06/05 00:07:15;;;;;;;5.93;3.08;;;;;;;;;;5060063;28;20284;-73
2023/06/05 00:09:41;;;;;;;4.03;2.75;;;;;;;;;;5058038;28;20467;-73
2023/06/05 00:12:06;;;;;;;8.70;3.70;;;;;;;;;;5057213;28;20604;-75
2023/06/05 00:14:32;;;;;;;6.05;3.15;;;;;;;;;;5058753;28;20406;-75
2023/06/05 00:16:57;;;;;;;6.83;3.20;;;;;;;;;;5056915;28;20026;-75
2023/06/05 00:19:22;;;;;;;5.63;3.10;;;;;;;;;;5046816;28;20032;-73
2023/06/05 00:21:50;;;;;;;5.60;2.90;;;;;;;;;;5055907;28;20711;-73
2023/06/05 00:24:15;;;;;;;5.57;3.22;;;;;;;;;;5055400;28;20013;-73
2023/06/05 00:26:40;;;;;;;6.25;3.28;;;;;;;;;;5055968;28;20029;-73
2023/06/05 00:29:06;;;;;;;4.50;3.13;;;;;;;;;;5055925;28;20029;-73
2023/06/05 00:31:32;;;;;;;5.10;3.23;;;;;;;;;;5057671;28;20035;-74
2023/06/05 00:33:57;;;;;;;4.13;3.03;;;;;;;;;;5062320;28;20464;-74
2023/06/05 00:36:22;;;;;;;4.43;3.17;;;;;;;;;;5055469;28;20053;-74
2023/06/05 00:38:49;;;;;;;12.70;3.43;;;;;;;;;;5051156;28;20021;-74
2023/06/05 00:41:14;;;;;;;8.65;3.90;;;;;;;;;;5044629;28;20274;-73
2023/06/05 00:43:40;;;;;;;6.55;3.78;;;;;;;;;;5057501;28;20120;-73
2023/06/05 00:46:05;;;;;;;7.03;3.60;;;;;;;;;;5059618;28;20463;-74
2023/06/05 00:48:32;;;;;;;6.43;3.80;;;;;;;;;;5060114;28;20121;-73
2023/06/05 00:50:57;;;;;;;7.20;3.72;;;;;;;;;;5045651;28;20399;-74
2023/06/05 00:53:23;;;;;;;6.13;3.27;;;;;;;;;;5058623;28;20025;-75
2023/06/05 00:55:49;;;;;;;7.18;3.40;;;;;;;;;;5060992;28;20063;-75
2023/06/05 00:58:15;;;;;;;4.90;3.58;;;;;;;;;;5058517;28;20040;-75
2023/06/05 01:00:40;;;;;;;7.75;3.38;;;;;;;;;;5061090;28;20040;-74
2023/06/05 01:03:08;;;;;;;10.27;3.80;;;;;;;;;;5045249;28;20541;-74
2023/06/05 01:05:33;;;;;;;6.78;3.05;;;;;;;;;;5064439;28;20116;-75
2023/06/05 01:08:02;;;;;;;9.38;3.38;;;;;;;;;;5061615;28;20667;-75
2023/06/05 01:10:27;;;;;;;6.32;3.38;;;;;;;;;;5058555;28;20418;-74
2023/06/05 01:13:02;;;;;;;5.60;3.43;;;;;;;;;;5059681;28;20027;-75
2023/06/05 01:15:28;;;;;;;4.53;3.40;;;;;;;;;;5059163;28;20036;-74
2023/06/05 01:17:55;;;;;;;6.20;3.47;;;;;;;;;;5058787;28;20471;-74
2023/06/05 01:20:20;;;;;;;8.57;3.63;;;;;;;;;;5061193;28;20638;-74
2023/06/05 01:22:49;;;;;;;5.32;3.42;;;;;;;;;;5055513;28;20036;-74
2023/06/05 01:25:14;;;;;;;9.80;4.33;;;;;;;;;;5059122;28;20033;-72
2023/06/05 01:27:40;;;;;;;7.10;3.75;;;;;;;;;;5059224;28;20494;-72
2023/06/05 01:30:08;;;;;;;6.97;3.35;;;;;;;;;;5061427;28;20025;-72
2023/06/05 01:32:37;;;;;;;4.43;3.20;;;;;;;;;;5059955;28;20489;-72
2023/06/05 01:35:06;;;;;;;6.72;3.30;;;;;;;;;;5056442;28;20078;-72
2023/06/05 01:37:36;;;;;;;9.68;3.53;;;;;;;;;;5063107;28;20116;-72
2023/06/05 01:40:02;;;;;;;4.43;3.30;;;;;;;;;;5040658;28;20017;-72
2023/06/05 01:42:28;;;;;;;6.15;3.40;;;;;;;;;;5058156;28;20028;-72
2023/06/05 01:44:53;;;;;;;5.25;3.50;;;;;;;;;;5056615;28;20659;-72
2023/06/05 01:47:21;;;;;;;8.15;3.15;;;;;;;;;;5044013;28;20381;-72
2023/06/05 01:49:46;;;;;;;8.65;3.90;;;;;;;;;;5048731;28;20714;-72
2023/06/05 01:52:11;;;;;;;6.03;3.70;;;;;;;;;;5058571;28;20063;-72
2023/06/05 01:54:38;;;;;;;6.82;3.50;;;;;;;;;;5043634;28;20285;-71
2023/06/05 01:57:04;;;;;;;4.28;3.28;;;;;;;;;;5059638;28;20052;-72
2023/06/05 01:59:29;;;;;;;7.15;3.58;;;;;;;;;;5059985;28;20029;-73
2023/06/05 02:01:54;;;;;;;5.13;3.53;;;;;;;;;;5060599;28;20482;-73
2023/06/05 02:04:20;;;;;;;5.77;4.00;;;;;;;;;;5041589;28;20037;-72
2023/06/05 02:06:46;;;;;;;7.43;3.72;;;;;;;;;;5057088;28;20035;-72
2023/06/05 02:09:12;;;;;;;9.52;3.65;;;;;;;;;;5057781;28;20470;-73
2023/06/05 02:11:38;;;;;;;5.68;3.85;;;;;;;;;;5060286;28;20047;-72
2023/06/05 02:14:04;;;;;;;6.90;4.20;;;;;;;;;;5061074;28;20079;-71
2023/06/05 02:16:30;;;;;;;6.65;3.63;;;;;;;;;;5058470;28;20016;-71
2023/06/05 02:18:57;;;;;;;11.00;3.92;;;;;;;;;;5042175;28;20028;-72
2023/06/05 02:21:22;;;;;;;5.03;4.05;;;;;;;;;;5059238;28;20025;-74
2023/06/05 02:23:49;;;;;;;6.00;3.97;;;;;;;;;;5058599;28;20068;-73
2023/06/05 02:26:17;;;;;;;7.05;4.47;;;;;;;;;;5040292;28;20548;-73
2023/06/05 02:28:43;;;;;;;5.05;3.83;;;;;;;;;;5053048;28;20123;-74
2023/06/05 02:31:08;;;;;;;5.67;3.80;;;;;;;;;;5058831;28;20116;-73
2023/06/05 02:33:33;;;;;;;6.23;4.23;;;;;;;;;;5045234;28;20033;-70
2023/06/05 02:35:58;;;;;;;6.75;3.97;;;;;;;;;;5057246;28;20627;-71
2023/06/05 02:38:24;;;;;;;6.63;4.07;;;;;;;;;;5058448;28;20382;-71
2023/06/05 02:40:49;;;;;;;7.28;4.15;;;;;;;;;;5057963;28;20278;-71
2023/06/05 02:43:16;;;;;;;9.77;4.38;;;;;;;;;;5056194;28;20442;-71
2023/06/05 02:45:41;;;;;;;5.85;3.95;;;;;;;;;;5058215;28;20047;-73
2023/06/05 02:48:07;;;;;;;7.78;3.90;;;;;;;;;;5056416;28;20052;-73
2023/06/05 02:50:32;;;;;;;7.30;4.23;;;;;;;;;;5058185;28;20120;-72
2023/06/05 02:52:57;;;;;;;6.87;4.10;;;;;;;;;;5059272;28;20045;-72
2023/06/05 02:55:22;;;;;;;13.82;4.28;;;;;;;;;;5058136;28;20631;-72
2023/06/05 02:57:48;;;;;;;6.63;3.60;;;;;;;;;;5058654;28;20513;-72
2023/06/05 03:00:15;;;;;;;5.70;3.97;;;;;;;;;;5059505;28;20029;-72
2023/06/05 03:02:41;;;;;;;6.57;3.95;;;;;;;;;;5045894;28;20701;-71
2023/06/05 03:05:07;;;;;;;9.23;4.20;;;;;;;13.87;nan;100879.72;5057450;28;20032;-71
2023/06/05 03:07:33;;;;;;;6.05;4.18;;;;;;;;;;5058445;28;20059;-72
2023/06/05 03:09:59;;;;;;;6.93;3.90;;;;;;;;;;5059948;28;20047;-73
2023/06/05 03:12:24;;;;;;;7.70;4.18;;;;;;;;;;5055891;28;20033;-71
2023/06/05 03:14:49;;;;;;;10.37;4.03;;;;;;;;;;5054536;28;20028;-71
2023/06/05 03:17:14;;;;;;;7.63;4.00;;;;;;;;;;5047191;28;20513;-71
2023/06/05 03:19:40;;;;;;;7.67;4.30;;;;;;;;;;5056068;28;20274;-72
2023/06/05 03:22:05;;;;;;;8.32;4.35;;;;;;;;;;5058121;28;20710;-72
2023/06/05 03:24:31;;;;;;;6.40;3.97;;;;;;;;;;5058598;28;20024;-71
2023/06/05 03:26:56;;;;;;;6.50;3.80;;;;;;;;;;5057586;28;20029;-71
2023/06/05 03:29:21;;;;;;;6.30;4.00;;;;;;;;;;5058165;28;20060;-73
2023/06/05 03:31:46;;;;;;;11.80;5.00;;;;;;;;;;5056777;28;20064;-72
2023/06/05 03:34:12;;;;;;;8.87;3.77;;;;;;;;;;5058125;28;20093;-72
2023/06/05 03:36:39;;;;;;;6.20;4.03;;;;;;;;;;5055206;28;20037;-71
2023/06/05 03:39:04;;;;;;;11.88;3.92;;;;;;;;;;5055842;28;20795;-72
2023/06/05 03:41:30;;;;;;;6.25;4.00;;;;;;;;;;5054603;28;20144;-72
2023/06/05 03:43:56;;;;;;;6.33;4.00;;;;;;;;;;5056680;28;20029;-71
2023/06/05 03:46:23;;;;;;;6.72;3.95;;;;;;;;;;5055364;28;20282;-72
2023/06/05 03:48:49;;;;;;;7.78;4.10;;;;;;;;;;5054336;28;20035;-74
2023/06/05 03:51:18;;;;;;;8.20;3.78;;;;;;;;;;5043570;28;20024;-73
2023/06/05 03:53:44;;;;;;;9.10;4.22;;;;;;;;;;5056892;28;20032;-74
2023/06/05 03:56:09;;;;;;;11.57;4.30;;;;;;;;;;5043386;28;20036;-73
2023/06/05 03:58:35;;;;;;;7.03;4.07;;;;;;;;;;5057422;28;20128;-73
2023/06/05 04:01:00;;;;;;;7.43;4.27;;;;;;;14.72;nan;100927.66;5056390;28;20111;-73
2023/06/05 04:03:27;;;;;;;6.65;4.47;;;;;;;14.38;nan;100854.16;5057050;28;20821;-73
2023/06/05 04:05:52;;;;;;;8.70;3.83;;;;;;;14.38;nan;100842.78;5055475;28;20058;-73
2023/06/05 04:08:18;;;;;;;9.70;4.60;;;;;;;14.47;nan;100844.00;5056642;28;20021;-73
2023/06/05 04:10:43;;;;;;;5.03;4.03;;;;;;;14.55;nan;100835.66;5058009;28;20033;-74
2023/06/05 04:13:08;;;;;;;5.68;4.07;;;;;;;14.57;nan;100836.25;5055122;28;20025;-74
2023/06/05 04:15:34;;;;;;;6.78;4.35;;;;;;;14.66;nan;100844.59;5056866;28;20024;-74
2023/06/05 04:18:00;;;;;;;5.53;4.07;;;;;;;14.70;nan;100842.25;5052620;28;20029;-74
2023/06/05 04:20:25;;;;;;;11.27;3.78;;;;;;;14.77;nan;100838.44;5056313;28;20464;-74
2023/06/05 04:22:51;;;;;;;6.47;4.22;;;;;;;14.77;nan;100829.66;5055889;28;20017;-73
2023/06/05 04:25:16;;;;;;;6.05;4.20;;;;;;;14.83;nan;100816.22;5055461;28;20503;-74
2023/06/05 04:27:44;;;;;;;7.85;4.43;;;;;;;14.97;nan;100835.25;5056503;28;20082;-74
2023/06/05 04:30:11;;;;;;;6.35;4.20;;;;;;;15.08;nan;100844.16;5055951;28;20052;-75
2023/06/05 04:32:38;;;;;;;9.82;4.40;;;;;;;15.08;nan;100821.09;5055132;28;20043;-75
2023/06/05 04:35:05;;;;;;;6.10;4.13;;;;;;;15.17;nan;100829.44;5057943;28;20064;-73
2023/06/05 04:37:31;;;;;;;7.28;4.28;;;;;;;15.29;nan;100839.94;5055881;28;20029;-73
2023/06/05 04:39:58;;;;;;;9.32;3.92;;;;;;;15.46;nan;100847.84;5044363;28;20104;-75
2023/06/05 04:42:23;;;;;;;9.10;3.55;;;;;;;15.58;nan;100855.69;5057111;28;20047;-75
2023/06/05 04:45:03;;;;;;;11.68;3.67;;;;;;;15.67;nan;100847.06;5054626;28;20021;-74
2023/06/05 04:47:28;;;;;;;;;;;;;;;15.75;nan;100851.16;5055593;28;20029;-75
2023/06/05 04:49:54;;;;;;;7.53;3.60;;;;;;;15.71;nan;100844.75;5056389;28;19989;-74
2023/06/05 04:52:20;;;;;;;6.60;4.15;;;;;;;15.89;nan;100851.56;5055120;28;20077;-73
2023/06/05 04:54:46;;;;;;;6.30;3.50;;;;;;;15.86;nan;100831.63;5037430;28;20569;-74
2023/06/05 04:57:12;;;;;;;7.43;3.80;;;;;;;16.08;nan;100855.50;5054916;28;20036;-74
2023/06/05 04:59:37;;;;;;;7.65;3.88;;;;;;;16.20;nan;100857.22;5054696;28;20024;-74
2023/06/05 05:02:03;;;;;;;4.57;3.65;;;;;;;16.36;nan;100856.31;5042142;28;20021;-74
2023/06/05 05:04:29;;;;;;;4.20;3.53;;;;;;;16.42;nan;100865.91;5055178;28;20670;-74
2023/06/05 05:07:00;;;;;;;6.70;3.60;;;;;;;16.55;nan;100860.19;5053337;28;20021;-74
2023/06/05 05:09:26;;;;;;;5.25;3.30;;;;;;;16.60;nan;100856.78;5059248;28;20029;-75
2023/06/05 05:11:52;;;;;;;7.30;3.95;;;;;;;16.73;nan;100847.56;5056240;28;20670;-74
2023/06/05 05:14:17;;;;;;;8.05;3.70;;;;;;;;;;5052867;28;20021;-74
2023/06/05 05:16:43;;;;;;;6.10;3.50;;;;;;;;;;5057366;28;20109;-74
2023/06/05 05:19:08;;;;;;;5.70;3.13;;;;;;;;;;5058931;28;20025;-73
2023/06/05 05:21:33;;;;;;;10.40;3.93;;;;;;;17.20;nan;100873.47;5057545;28;20310;-73
2023/06/05 05:23:59;;;;;;;5.75;3.05;;;;;;;17.22;nan;100842.88;5046143;28;20021;-73
2023/06/05 05:26:24;;;;;;;7.78;3.90;;;;;;;17.38;nan;100857.06;5059187;28;20044;-74
2023/06/05 05:28:49;;;;;;;5.90;3.35;;;;;;;17.42;nan;100852.81;5059566;28;20063;-74
2023/06/05 05:31:15;;;;;;;7.22;3.33;;;;;;;17.44;nan;100839.25;5059550;28;20032;-72
2023/06/05 05:33:41;;;;;;;8.27;3.05;;;;;;;17.57;nan;100845.94;5043568;28;20032;-72
2023/06/05 05:36:06;;;;;;;7.28;2.90;;;;;;;17.74;nan;100846.56;5059046;28;20024;-73
2023/06/05 05:38:32;;;;;;;6.72;2.85;;;;;;;17.81;nan;100848.97;5058283;28;20036;-74
2023/06/05 05:40:57;;;;;;;5.20;2.95;;;;;;;17.85;nan;100840.22;5058243;28;20052;-73
2023/06/05 05:43:22;;;;;;;4.15;3.15;;;;;;;17.93;nan;100846.09;5056703;28;20591;-73
2023/06/05 05:45:48;;;;;;;5.38;3.00;;;;;;;18.01;nan;100846.38;5058239;28;20036;-72
2023/06/05 05:48:13;;;;;;;4.10;2.85;;;;;;;18.04;nan;100840.53;5048677;28;20555;-72
2023/06/05 05:50:40;;;;;;;3.95;3.03;;;;;;;18.00;nan;100825.31;5049594;28;20432;-72
2023/06/05 05:53:06;;;;;;;3.22;2.78;;;;;;;18.15;nan;100835.19;5060595;28;20021;-73
2023/06/05 05:55:32;;;;;;;5.57;2.90;;;;;;;18.26;nan;100842.16;5058754;28;20102;-72
2023/06/05 05:57:57;;;;;;;4.78;2.75;;;;;;;18.28;nan;100835.50;5059548;28;20107;-73
2023/06/05 06:00:22;;;;;;;3.28;2.80;;;;;;;18.44;nan;100844.31;5058115;28;20029;-73
2023/06/05 06:02:48;;;;;;;5.10;3.22;;;;;;;18.45;nan;100839.75;5043365;28;20646;-73
2023/06/05 06:05:13;;;;;;;3.78;2.90;;;;;;;18.55;nan;100839.75;5059696;28;20458;-73
2023/06/05 06:07:41;;;;;;;9.52;3.40;;;;;;;18.59;nan;100846.16;5058913;28;20041;-74
2023/06/05 06:10:08;;;;;;;5.53;3.50;;;;;;;18.64;nan;100848.03;5047644;28;20021;-72
2023/06/05 06:12:33;;;;;;;7.95;3.30;;;;;;;18.47;nan;100825.09;5057423;28;20033;-72
2023/06/05 06:14:59;;;;;;;7.72;3.38;;;;;;;18.66;nan;100845.91;5058308;28;20095;-72
2023/06/05 06:17:24;;;;;;;5.00;3.35;;;;;;;18.64;nan;100835.50;5057845;28;20031;-72
2023/06/05 06:19:50;;;;;;;9.00;3.33;;;;;;;18.73;nan;100841.09;5059066;28;20028;-72
2023/06/05 06:22:15;;;;;;;9.55;4.00;;;;;;;18.76;nan;100840.59;5047165;28;20281;-72
2023/06/05 06:24:43;;;;;;;7.47;3.67;;;;;;;18.82;nan;100839.53;5055679;28;20111;-72
2023/06/05 06:27:10;;;;;;;6.77;3.30;;;;;;;18.95;nan;100851.50;5058305;28;20098;-73
2023/06/05 06:29:37;;;;;;;6.07;2.88;;;;;;;18.81;nan;100819.22;5058322;28;20344;-72
2023/06/05 06:32:03;;;;;;;3.83;2.90;;;;;;;19.04;nan;100849.09;5061074;28;20027;-72
2023/06/05 06:34:29;;;;;;;5.07;3.22;;;;;;;19.11;nan;100853.06;5057983;28;20107;-72
2023/06/05 06:36:55;;;;;;;6.18;3.50;;;;;;;19.21;nan;100854.91;5059753;28;20024;-73
2023/06/05 06:39:22;;;;;;;4.75;3.00;;;;;;;19.25;nan;100849.81;5044976;28;20047;-72
2023/06/05 06:41:47;;;;;;;4.18;2.95;;;;;;;19.32;nan;100848.47;5054753;28;20020;-72
2023/06/05 06:44:12;;;;;;;5.43;3.10;;;;;;;19.37;nan;100842.31;5059685;28;20023;-71
2023/06/05 06:46:38;;;;;;;4.10;2.80;;;;;;;19.53;nan;100857.19;5058233;28;20071;-72
2023/06/05 06:49:04;;;;;;;3.70;2.97;;;;;;;19.50;nan;100844.41;5062459;28;20074;-73
2023/06/05 06:51:29;;;;;;;5.15;2.42;;;;;;;19.60;nan;100853.44;5059109;28;20352;-72
2023/06/05 06:53:55;;;;;;;4.05;2.80;;;;;;;19.72;nan;100859.28;5059068;28;20032;-73
2023/06/05 06:56:21;;;;;;;9.32;3.63;;;;;;;19.83;nan;100852.84;5053599;28;20112;-72
2023/06/05 06:58:46;;;;;;;3.60;2.95;;;;;;;19.90;nan;100855.22;5057430;28;20033;-71
2023/06/05 07:01:14;;;;;;;4.25;2.92;;;;;;;19.92;nan;100848.50;5058591;28;20017;-73
2023/06/05 07:03:40;;;;;;;4.82;2.83;;;;;;;20.02;nan;100852.19;5043741;28;20033;-73
2023/06/05 07:06:06;;;;;;;6.25;2.70;;;;;;;20.04;nan;100842.81;5057855;28;20020;-73
2023/06/05 07:08:32;;;;;;;4.22;2.38;;;;;;;20.04;nan;100832.13;5056246;28;20029;-72
2023/06/05 07:10:58;;;;;;;5.85;2.90;;;;;;;20.14;nan;100841.97;5056357;28;20071;-73
2023/06/05 07:13:23;;;;;;;4.28;2.50;;;;;;;20.20;nan;100851.53;5055791;28;20050;-72
2023/06/05 07:15:49;;;;;;;4.07;2.80;;;;;;;20.24;nan;100843.75;5057794;28;20107;-72
2023/06/05 07:18:17;;;;;;;3.88;2.75;;;;;;;20.32;nan;100853.84;5056486;28;20027;-72
2023/06/05 07:20:42;;;;;;;3.45;2.60;;;;;;;20.32;nan;100856.53;5047282;28;20398;-72
2023/06/05 07:23:07;;;;;;;6.00;2.63;;;;;;;20.37;nan;100848.47;5056856;28;20035;-71
2023/06/05 07:25:33;;;;;;;7.15;2.88;;;;;;;20.48;nan;100844.63;5054939;28;20108;-72
2023/06/05 07:27:59;;;;;;;3.17;2.65;;;;;;;20.58;nan;100849.13;5057750;28;20497;-71
2023/06/05 07:30:26;;;;;;;5.18;2.88;;;;;;;20.65;nan;100843.47;5055467;28;20025;-72
2023/06/05 07:32:51;;;;;;;5.90;2.80;;;;;;;20.80;nan;100845.97;5042690;28;20090;-71
2023/06/05 07:35:17;;;;;;;5.55;2.80;;;;;;;20.87;nan;100853.69;5054426;28;20097;-73
2023/06/05 07:37:42;;;;;;;6.70;3.03;;;;;;;20.81;nan;100843.03;5055676;28;20474;-71
2023/06/05 07:40:08;;;;;;;3.80;2.78;;;;;;;21.00;nan;100850.34;5042646;28;20033;-72
2023/06/05 07:42:34;;;;;;;3.55;2.80;;;;;;;20.93;nan;100836.50;5054498;28;20024;-72
2023/06/05 07:45:00;;;;;;;3.75;2.67;;;;;;;21.06;nan;100849.22;5058422;28;20063;-72
2023/06/05 07:47:26;;;;;;;3.05;2.67;;;;;;;21.07;nan;100842.78;5055822;28;20107;-72
2023/06/05 07:50:03;;;;;;;5.25;2.83;;;;;;;21.16;nan;100848.28;5060512;28;20024;-71
2023/06/05 07:52:30;;;;;;;3.33;2.80;;;;;;;21.20;nan;100854.69;5052557;28;20036;-71
2023/06/05 07:54:56;;;;;;;4.90;2.35;;;;;;;21.23;nan;100848.75;5053874;28;20029;-72
2023/06/05 07:57:24;;;;;;;4.28;2.80;;;;;;;21.20;nan;100834.06;5055717;28;20045;-74
2023/06/05 07:59:50;;;;;;;3.42;2.55;;;;;;;21.29;nan;100839.59;5055819;28;20020;-74
2023/06/05 08:02:17;;;;;;;4.75;2.67;;;;;;;21.38;nan;100845.91;5055037;28;20027;-74
2023/06/05 08:04:42;;;;;;;3.78;3.08;;;;;;;21.43;nan;100834.38;5056540;28;20055;-74
2023/06/05 08:07:07;;;;;;;4.60;2.90;;;;;;;21.49;nan;100841.25;5054619;28;20052;-73
2023/06/05 08:09:33;;;;;;;4.10;3.15;;;;;;;21.45;nan;100835.69;5052732;28;20031;-73
2023/06/05 08:11:59;;;;;;;4.22;2.67;;;;;;;21.58;nan;100834.16;5055743;28;20089;-74
2023/06/05 08:14:25;;;;;;;5.82;3.10;;;;;;;21.60;nan;100831.22;5040053;28;20082;-74
2023/06/05 08:16:51;;;;;;;4.45;2.75;;;;;;;21.66;nan;100838.06;5052581;28;20028;-74
2023/06/05 08:19:16;;;;;;;9.30;2.80;;;;;;;21.74;nan;100840.13;5057931;28;20521;-74
2023/06/05 08:21:42;;;;;;;3.17;2.70;;;;;;;21.84;nan;100853.38;5055239;28;20021;-73
2023/06/05 08:24:07;;;;;;;4.50;2.80;;;;;;;21.93;nan;100855.41;5057239;28;20136;-73
2023/06/05 08:26:33;;;;;;;3.85;2.70;;;;;;;21.92;nan;100838.53;5045102;28;20024;-75
2023/06/05 08:28:59;;;;;;;6.13;2.78;;;;;;;22.00;nan;100845.13;5039250;28;20021;-74
2023/06/05 08:31:25;;;;;;;4.30;2.95;;;;;;;22.01;nan;100834.09;5056731;28;20029;-75
2023/06/05 08:33:51;;;;;;;4.45;2.50;;;;;;;22.06;nan;100819.81;5052157;28;20436;-73
2023/06/05 08:36:17;;;;;;;5.07;2.97;;;;;;;22.15;nan;100820.75;5055472;28;20103;-73
2023/06/05 08:38:43;;;;;;;6.05;2.80;;;;;;;22.12;nan;100815.16;5039323;28;20032;-73
2023/06/05 08:41:12;;;;;;;4.90;2.95;;;;;;;22.09;nan;100806.63;5057275;28;20020;-73
2023/06/05 08:43:38;;;;;;;4.05;2.58;;;;;;;22.22;nan;100823.09;5054962;28;20063;-72
2023/06/05 08:46:05;;;;;;;3.72;3.10;;;;;;;22.12;nan;100805.22;5055680;28;20108;-74
2023/06/05 08:48:34;;;;;;;3.25;2.92;;;;;;;22.26;nan;100808.78;5056082;28;20024;-73
2023/06/05 08:51:00;;;;;;;6.55;2.83;;;;;;;22.36;nan;100801.66;5039208;28;20032;-73
2023/06/05 08:53:32;;;;;;;3.75;2.60;;;;;;;22.44;nan;100809.84;5039668;28;20028;-73
2023/06/05 08:55:57;;;;;;;3.92;2.78;;;;;;;22.34;nan;100788.56;5049182;28;20093;-74
2023/06/05 08:58:24;;;;;;;3.10;2.80;;;;;;;22.53;nan;100809.97;5065954;28;20050;-74
2023/06/05 09:00:50;;;;;;;3.90;2.60;;;;;;;22.63;nan;100815.16;5059972;28;20074;-73
2023/06/05 09:03:19;;;;;;;3.75;2.97;;;;;;;22.68;nan;100815.06;5059885;28;20104;-73
2023/06/05 09:05:45;;;;;;;3.50;2.70;;;;;;;;;;5062298;28;20048;-73
2023/06/05 09:08:10;;;;;;;5.25;2.85;;;;;;;22.77;nan;100807.13;5061215;28;20059;-73
2023/06/05 09:10:36;;;;;;;2.97;2.67;;;;;;;22.83;nan;100805.94;5057296;28;20024;-74
2023/06/05 09:13:03;;;;;;;3.85;2.85;;;;;;;22.87;nan;100806.94;5059388;28;20029;-73
2023/06/05 09:15:30;;;;;;;5.07;2.80;;;;;;;22.91;nan;100801.75;5047651;28;20036;-73
2023/06/05 09:18:12;;;;;;;4.25;2.63;;;;;;;22.91;nan;100805.25;5060277;28;20075;-73
2023/06/05 09:20:39;;;;;;;3.40;3.03;;;;;;;22.89;nan;100799.38;5056086;28;20024;-73
2023/06/05 09:23:26;;;;;;;4.32;3.15;;;;;;;22.90;nan;100800.97;5056319;28;20039;-73
2023/06/05 09:25:52;;;;;;;5.18;2.90;;;;;;;22.96;nan;100800.88;5057493;28;20028;-74
2023/06/05 09:28:18;;;;;;;7.75;2.95;;;;;;;22.99;nan;100800.31;5049112;28;20051;-74
2023/06/05 09:31:00;;;;;;;4.00;2.40;;;;;;;23.04;nan;100797.53;5059076;28;20041;-74
2023/06/05 09:33:28;;;;;;;5.15;3.10;;;;;;;23.11;nan;100806.78;5056939;28;20024;-77
2023/06/05 09:36:08;;;;;;;3.65;2.88;;;;;;;23.19;nan;100804.47;5050313;28;20062;-74
2023/06/05 09:38:37;;;;;;;3.17;2.70;;;;;;;23.19;nan;100807.16;5047677;28;20039;-74
2023/06/05 09:41:18;;;;;;;5.53;2.90;;;;;;;23.19;nan;100793.75;5058912;28;20023;-74
2023/06/05 09:43:45;;;;;;;5.40;3.10;;;;;;;23.07;nan;100770.06;5043358;28;20041;-75
2023/06/05 09:46:12;;;;;;;4.07;2.97;;;;;;;23.23;nan;100794.75;5039080;28;20803;-75
2023/06/05 09:48:43;;;;;;;3.17;2.72;;;;;;;23.34;nan;100807.66;5056570;28;20032;-74
2023/06/05 09:51:14;;;;;;;3.90;2.70;;;;;;;23.36;nan;100802.75;5058363;28;20024;-74
2023/06/05 09:53:44;;;;;;;3.00;2.53;;;;;;;23.36;nan;100781.25;5057172;28;20033;-74
2023/06/05 09:56:21;;;;;;;5.35;3.00;;;;;;;23.51;nan;100800.84;5057439;28;20029;-74
2023/06/05 09:58:49;;;;;;;5.32;3.40;;;;;;;23.56;nan;100801.56;5060585;28;20042;-74
2023/06/05 10:01:17;;;;;;;3.03;2.72;;;;;;;23.44;nan;100771.72;5059290;28;20024;-74
2023/06/05 10:03:48;;;;;;;3.67;2.88;;;;;;;23.64;nan;100783.09;5056549;28;20553;-75
2023/06/05 10:06:16;;;;;;;3.65;2.63;;;;;;;23.64;nan;100778.53;5056913;28;20028;-74
2023/06/05 10:08:41;;;;;;;7.80;3.45;;;;;;;23.71;nan;100786.19;5046545;28;20085;-73
2023/06/05 10:11:08;;;;;;;5.00;2.97;;;;;;;23.73;nan;100774.03;5056876;28;20024;-76
2023/06/05 10:13:35;;;;;;;4.57;3.05;;;;;;;23.85;nan;100783.44;5058448;28;20029;-75
2023/06/05 10:16:02;;;;;;;4.65;2.53;;;;;;;23.90;nan;100784.13;5055667;28;20210;-76
2023/06/05 10:18:27;;;;;;;6.43;2.97;;;;;;;23.85;nan;100781.56;5059128;28;20036;-74
2023/06/05 10:20:53;;;;;;;4.93;3.35;;;;;;;23.91;nan;100783.03;5059681;28;20024;-74
2023/06/05 10:23:20;;;;;;;5.72;2.90;;;;;;;23.90;nan;100772.59;5063308;28;20086;-75
2023/06/05 10:25:47;;;;;;;4.60;2.92;;;;;;;23.95;nan;100769.78;5046911;28;20531;-75
2023/06/05 10:28:35;;;;;;;4.75;2.95;;;;;;;23.94;nan;100769.00;5058930;28;20032;-74
2023/06/05 10:31:30;;;;;;;10.10;3.08;;;;;;;23.97;nan;100768.38;5058114;28;20036;-73
2023/06/05 10:34:30;;;;;;;4.80;2.90;;;;;;;24.05;nan;100766.84;5057992;28;20131;-74
2023/06/05 10:37:23;;;;;;;3.70;2.78;;;;;;;24.05;nan;100749.91;5036504;28;20052;-75
2023/06/05 10:39:50;;;;;;;4.28;3.00;;;;;;;24.16;nan;100759.31;5054738;28;20534;-74
2023/06/05 10:42:34;;;;;;;4.68;3.33;;;;;;;24.21;nan;100751.13;5055640;28;20079;-74
2023/06/05 10:44:59;;;;;;;6.65;3.08;;;;;;;24.32;nan;100759.72;5059795;28;20435;-74
2023/06/05 10:47:34;;;;;;;5.22;2.85;;;;;;;24.48;nan;100768.22;5057114;28;20048;-75
2023/06/05 10:50:25;;;;;;;5.97;3.58;;;;;;;24.56;nan;100764.75;5058558;28;20029;-75
2023/06/05 10:52:52;;;;;;;4.95;2.92;;;;;;;24.51;nan;100749.53;5054667;28;20226;-74
2023/06/05 10:55:18;;;;;;;5.95;2.95;;;;;;;24.46;nan;100754.25;5056585;28;20383;-73
2023/06/05 10:58:03;;;;;;;3.95;3.03;;;;;;;24.59;nan;100758.75;5058239;28;20567;-75
2023/06/05 11:00:28;;;;;;;5.30;2.95;;;;;;;24.62;nan;100748.16;5056201;28;20033;-75
2023/06/05 11:02:54;;;;;;;4.35;2.95;;;;;;;24.63;nan;100744.34;5056655;28;20107;-74
2023/06/05 11:05:20;;;;;;;3.13;2.53;;;;;;;24.71;nan;100750.91;5059913;28;20017;-74
2023/06/05 11:07:46;;;;;;;4.22;2.70;;;;;;;24.69;nan;100731.56;5056475;28;20023;-74
2023/06/05 11:10:21;;;;;;;3.20;2.90;;;;;;;24.74;nan;100731.41;5058591;28;20024;-74
2023/06/05 11:12:47;;;;;;;5.95;3.10;;;;;;;24.87;nan;100740.47;5058521;28;20039;-75
2023/06/05 11:15:33;;;;;;;3.53;3.03;;;;;;;24.91;nan;100735.28;5056306;28;20508;-75
2023/06/05 11:18:28;;;;;;;5.32;2.83;;;;;;;24.96;nan;100729.75;5055928;28;20557;-76
2023/06/05 11:20:55;;;;;;;6.28;2.65;;;;;;;24.99;nan;100734.50;5059462;28;20055;-75
2023/06/05 11:23:21;;;;;;;5.10;2.50;;;;;;;24.97;nan;100721.34;5061379;28;20043;-75
2023/06/05 11:25:48;;;;;;;3.30;2.75;;;;;;;25.06;nan;100718.66;5057105;28;20037;-75
2023/06/05 11:28:13;;;;;;;4.22;2.58;;;;;;;25.12;nan;100727.41;5058272;28;20020;-75
2023/06/05 11:30:42;;;;;;;4.55;2.45;;;;;;;25.10;nan;100729.63;5057946;28;20436;-75
2023/06/05 11:33:13;;;;;;;8.73;2.70;;;;;;;25.06;nan;100726.75;5055215;28;20071;-73
2023/06/05 11:35:40;;;;;;;3.90;2.63;;;;;;;25.11;nan;100731.97;5057066;28;20468;-74
2023/06/05 11:38:19;;;;;;;5.05;2.60;;;;;;;25.09;nan;100709.94;5060014;28;20017;-74
2023/06/05 11:40:45;;;;;;;4.28;2.80;;;;;;;25.14;nan;100719.75;5055973;28;20541;-76
2023/06/05 11:43:15;;;;;;;3.58;2.53;;;;;;;24.92;nan;100685.66;5060209;28;20040;-73
2023/06/05 11:45:42;;;;;;;6.32;2.38;;;;;;;25.16;nan;100717.56;5056244;28;20036;-74
2023/06/05 11:48:11;;;;;;;4.68;2.47;;;;;;;25.27;nan;100720.78;5056642;28;20051;-75
2023/06/05 11:50:39;;;;;;;3.47;2.80;;;;;;;25.21;nan;100715.56;5056989;28;20032;-75
2023/06/05 11:53:11;;;;;;;5.60;3.00;;;;;;;25.31;nan;100713.63;5058030;28;20051;-74
2023/06/05 11:55:53;;;;;;;6.15;2.83;;;;;;;25.27;nan;100705.41;5046480;28;20071;-73
2023/06/05 11:58:29;;;;;;;3.72;2.40;;;;;;;25.34;nan;100713.81;5040248;28;20048;-74
2023/06/05 12:01:33;;;;;;;3.83;2.80;;;;;;;25.47;nan;100712.06;5054878;28;20025;-74
2023/06/05 12:04:07;;;;;;;4.65;2.88;;;;;;;25.40;nan;100695.56;4986169;28;20093;-75
2023/06/05 12:06:41;;;;;;;3.67;2.88;;;;;;;25.41;nan;100705.25;4984480;28;20109;-75
2023/06/05 12:09:11;;;;;;;3.88;2.42;;;;;;;25.34;nan;100692.25;4984801;28;20034;-75
2023/06/05 12:11:41;;;;;;;5.15;2.80;;;;;;;25.29;nan;100680.84;4983054;28;20786;-74
2023/06/05 12:14:07;;;;;;;2.78;2.10;;;;;;;25.36;nan;100692.72;4984527;28;20551;-74
2023/06/05 12:16:34;;;;;;;3.55;2.60;;;;;;;25.37;nan;100691.59;4984921;28;20084;-75
2023/06/05 12:19:01;;;;;;;3.70;2.60;;;;;;;25.46;nan;100697.78;4984873;28;20366;-75
2023/06/05 12:21:27;;;;;;;4.97;2.72;;;;;;;25.46;nan;100697.00;4984249;28;20030;-74
2023/06/05 12:24:03;;;;;;;3.25;2.95;;;;;;;25.40;nan;100690.16;4968501;28;20582;-75
2023/06/05 12:26:29;;;;;;;4.20;2.83;;;;;;;25.46;nan;100694.31;4984590;28;20023;-74
2023/06/05 12:29:06;;;;;;;7.50;2.70;;;;;;;25.43;nan;100684.94;4984166;28;20618;-75
2023/06/05 12:31:39;;;;;;;2.95;2.30;;;;;;;25.45;nan;100685.44;4984126;28;20030;-75
2023/06/05 12:34:04;;;;;;;4.32;2.67;;;;;;;25.43;nan;100676.84;5000582;28;20114;-74
2023/06/05 12:36:31;;;;;;;4.47;2.72;;;;;;;25.40;nan;100677.47;5053422;28;20494;-74